Time;durP1;ratioP1;P1;durP2;ratioP2;P2;SDS_P1;SDS_P2;PMS_P1;PMS_P2;Temp;Humidity;BMP_temperature;BMP_pressure;BME280_temperature;BME280_humidity;BME280_pressure;Samples;Min_cycle;Max_cycle;Signal;HPM_P1;HPM_P2
2024/04/03 00:00:44;;;;;;;32.95;10.90;;;;;;;14.44;60.07;96849.78;5113053;28;20070;-65
2024/04/03 00:03:10;;;;;;;29.50;9.82;;;;;;;14.46;59.83;96852.13;5113204;28;20518;-65
2024/04/03 00:05:37;;;;;;;35.08;8.98;;;;;;;14.43;59.76;96845.53;5094593;28;20504;-67
2024/04/03 00:08:03;;;;;;;26.98;8.57;;;;;;;14.44;59.75;96843.66;5111854;28;20090;-66
2024/04/03 00:10:29;;;;;;;37.80;9.95;;;;;;;14.41;59.39;96836.31;5094715;28;20089;-66
2024/04/03 00:12:55;;;;;;;24.80;9.27;;;;;;;14.39;59.62;96836.63;5113022;28;20043;-67
2024/04/03 00:15:21;;;;;;;38.05;9.43;;;;;;;14.37;60.15;96840.72;5094616;28;20427;-65
2024/04/03 00:17:47;;;;;;;31.02;10.52;;;;;;;14.36;59.66;96826.63;5112952;28;20279;-66
2024/04/03 00:20:12;;;;;;;33.05;10.23;;;;;;;14.37;59.24;96828.19;5112845;28;20039;-66
2024/04/03 00:22:38;;;;;;;29.77;9.63;;;;;;;14.38;59.20;96815.63;5094386;28;20042;-65
2024/04/03 00:25:05;;;;;;;33.55;10.38;;;;;;;14.38;59.28;96816.41;5094373;28;20050;-66
2024/04/03 00:27:31;;;;;;;39.80;9.20;;;;;;;14.39;58.85;96811.88;5112529;28;20067;-65
2024/04/03 00:29:57;;;;;;;29.45;9.07;;;;;;;14.40;58.70;96816.88;5094204;28;20051;-66
2024/04/03 00:32:23;;;;;;;29.25;9.23;;;;;;;14.43;58.13;96812.78;5112661;28;20039;-65
2024/04/03 00:34:52;;;;;;;28.23;9.38;;;;;;;14.43;58.00;96804.78;5112418;28;20488;-65
2024/04/03 00:37:20;;;;;;;28.67;9.33;;;;;;;14.42;58.15;96793.34;5094055;28;20153;-66
2024/04/03 00:39:46;;;;;;;28.88;9.85;;;;;;;14.43;57.96;96796.78;5077009;28;20289;-65
2024/04/03 00:42:11;;;;;;;33.50;10.23;;;;;;;14.44;58.00;96795.69;5112464;28;20043;-66
2024/04/03 00:44:45;;;;;;;32.28;10.30;;;;;;;14.45;57.56;96794.59;5112444;28;20070;-66
2024/04/03 00:47:11;;;;;;;36.53;9.98;;;;;;;14.42;57.59;96800.56;5111982;28;20200;-65
2024/04/03 00:49:37;;;;;;;28.48;9.45;;;;;;;14.40;57.38;96797.44;5112305;28;20131;-66
2024/04/03 00:52:03;;;;;;;28.02;8.50;;;;;;;14.37;57.27;96792.75;5094066;28;20134;-66
2024/04/03 00:54:28;;;;;;;23.90;8.73;;;;;;;14.34;57.68;96788.09;5112280;28;20092;-65
2024/04/03 00:56:54;;;;;;;26.48;8.98;;;;;;;14.31;57.59;96792.19;5112492;28;20031;-65
2024/04/03 00:59:20;;;;;;;30.73;10.07;;;;;;;14.27;57.76;96792.06;5111993;28;20044;-65
2024/04/03 01:01:46;;;;;;;26.48;9.20;;;;;;;14.25;57.65;96780.94;5112389;28;20500;-65
2024/04/03 01:04:12;;;;;;;24.80;9.77;;;;;;;14.24;57.86;96781.25;5092859;28;20543;-66
2024/04/03 01:06:37;;;;;;;31.13;9.25;;;;;;;14.21;57.80;96774.69;5111617;28;20045;-65
2024/04/03 01:09:03;;;;;;;29.30;9.43;;;;;;;14.19;57.54;96784.13;5093748;28;20044;-65
2024/04/03 01:11:29;;;;;;;28.60;9.35;;;;;;;14.13;57.99;96777.41;5112181;28;20067;-65
2024/04/03 01:13:54;;;;;;;34.10;10.60;;;;;;;14.11;57.87;96774.28;5093618;28;20058;-65
2024/04/03 01:16:20;;;;;;;35.65;9.50;;;;;;;14.09;57.58;96767.41;5093807;28;20100;-65
2024/04/03 01:18:46;;;;;;;24.55;9.07;;;;;;;14.09;57.03;96755.97;5111913;28;20051;-65
2024/04/03 01:21:11;;;;;;;24.95;8.52;;;;;;;14.13;57.05;96759.53;5093887;28;20050;-66
2024/04/03 01:23:37;;;;;;;35.30;9.98;;;;;;;14.15;57.15;96752.03;5111945;28;20382;-65
2024/04/03 01:26:03;;;;;;;27.92;9.27;;;;;;;14.13;57.22;96748.91;5111909;28;20306;-64
2024/04/03 01:28:31;;;;;;;29.45;9.35;;;;;;;14.13;56.79;96737.47;5111577;28;20048;-65
2024/04/03 01:30:57;;;;;;;30.58;8.98;;;;;;;14.09;57.18;96732.78;5076634;28;20100;-65
2024/04/03 01:33:22;;;;;;;31.60;9.10;;;;;;;14.06;57.27;96730.00;5110703;28;20050;-67
2024/04/03 01:35:48;;;;;;;29.08;9.52;;;;;;;14.03;56.62;96734.09;5093525;28;20434;-65
2024/04/03 01:38:16;;;;;;;31.17;9.13;;;;;;;14.04;57.17;96734.84;5093646;28;20044;-65
2024/04/03 01:40:42;;;;;;;22.60;8.23;;;;;;;14.01;56.61;96727.53;5111687;28;20039;-65
2024/04/03 01:43:07;;;;;;;29.23;9.90;;;;;;;14.02;56.65;96715.75;5111801;28;20055;-66
2024/04/03 01:45:33;;;;;;;24.02;8.63;;;;;;;14.00;56.50;96708.09;5093321;28;20065;-66
2024/04/03 01:47:59;;;;;;;28.88;9.82;;;;;;;14.00;56.77;96716.09;5093253;28;20067;-65
2024/04/03 01:50:37;;;;;;;30.00;9.35;;;;;;;13.99;56.83;96697.75;5093160;28;20091;-64
2024/04/03 01:53:03;;;;;;;27.70;8.82;;;;;;;13.95;56.60;96699.53;5127548;28;20040;-64
2024/04/03 01:55:29;;;;;;;30.95;8.65;;;;;;;13.90;56.70;96695.16;5076572;28;20192;-65
2024/04/03 01:57:54;;;;;;;33.35;9.25;;;;;;;13.86;56.90;96692.38;5093171;28;20401;-65
2024/04/03 02:00:20;;;;;;;33.00;9.35;;;;;;;13.82;57.27;96699.47;5111471;28;20045;-65
2024/04/03 02:02:46;;;;;;;22.55;8.48;;;;;;;13.81;57.19;96689.88;5111560;28;20497;-64
2024/04/03 02:05:12;;;;;;;27.83;8.50;;;;;;;13.78;57.29;96687.88;5111178;28;20420;-64
2024/04/03 02:07:38;;;;;;;26.48;8.45;;;;;;;13.74;57.05;96686.97;5111327;28;20044;-67
2024/04/03 02:10:04;;;;;;;22.83;8.80;;;;;;;13.75;57.03;96682.44;5111291;28;20051;-64
2024/04/03 02:12:30;;;;;;;36.30;9.32;;;;;;;13.81;56.72;96686.44;5093184;28;20047;-66
2024/04/03 02:14:56;;;;;;;26.88;8.50;;;;;;;13.84;56.58;96678.59;5113473;28;20050;-64
2024/04/03 02:17:22;;;;;;;29.05;8.90;;;;;;;13.84;56.84;96667.94;5115137;28;20035;-64
2024/04/03 02:19:49;;;;;;;30.35;9.27;;;;;;;13.89;56.55;96676.84;5096966;28;20055;-64
2024/04/03 02:22:15;;;;;;;32.40;8.85;;;;;;;13.92;56.42;96671.66;5097106;28;20044;-65
2024/04/03 02:24:40;;;;;;;36.97;8.80;;;;;;;13.90;56.81;96665.88;5096540;28;20047;-64
2024/04/03 02:27:06;;;;;;;32.15;9.15;;;;;;;13.87;56.49;96658.53;5115064;28;20043;-65
2024/04/03 02:29:32;;;;;;;30.38;8.75;;;;;;;13.86;56.80;96647.09;5096783;28;20062;-64
2024/04/03 02:31:58;;;;;;;41.70;10.20;;;;;;;13.88;56.84;96659.31;5096644;28;20501;-64
2024/04/03 02:34:24;;;;;;;34.42;8.95;;;;;;;13.90;56.59;96649.88;5096572;28;20067;-65
2024/04/03 02:36:49;;;;;;;33.10;9.32;;;;;;;13.90;56.38;96638.47;5096488;28;20032;-64
2024/04/03 02:39:15;;;;;;;27.77;9.10;;;;;;;13.91;56.18;96632.78;5079648;28;20047;-65
2024/04/03 02:41:41;;;;;;;27.17;9.45;;;;;;;13.91;56.59;96640.78;5096662;28;20035;-64
2024/04/03 02:44:07;;;;;;;30.98;9.07;;;;;;;13.90;56.52;96633.91;5114790;28;20052;-63
2024/04/03 02:46:33;;;;;;;40.63;9.00;;;;;;;13.90;56.47;96641.13;5114605;28;20054;-64
2024/04/03 02:48:59;;;;;;;32.15;9.02;;;;;;;13.92;56.26;96649.56;5114356;28;20044;-64
2024/04/03 02:51:27;;;;;;;30.88;8.57;;;;;;;13.91;56.30;96640.78;5130474;27;20035;-64
2024/04/03 02:53:53;;;;;;;34.42;9.38;;;;;;;13.91;55.96;96646.09;5114552;28;20051;-65
2024/04/03 02:56:19;;;;;;;23.52;7.85;;;;;;;13.91;56.29;96640.00;5114587;28;20046;-64
2024/04/03 02:58:45;;;;;;;34.65;8.90;;;;;;;13.89;56.28;96639.56;5114512;28;20050;-64
2024/04/03 03:01:11;;;;;;;24.75;7.82;;;;;;;13.88;56.14;96636.13;5079206;28;20039;-65
2024/04/03 03:03:37;;;;;;;30.13;8.65;;;;;;;13.88;56.33;96644.09;5096158;28;20550;-65
2024/04/03 03:06:04;;;;;;;29.25;8.05;;;;;;;13.86;56.38;96638.34;5096117;28;20043;-64
2024/04/03 03:08:31;;;;;;;22.88;7.90;;;;;;;13.82;56.09;96643.53;5095086;28;20116;-64
2024/04/03 03:11:01;;;;;;;36.05;8.68;;;;;;;13.82;55.70;96638.22;5114021;28;20046;-65
2024/04/03 03:13:28;;;;;;;26.38;7.68;;;;;;;13.82;56.08;96642.75;5114280;28;20039;-64
2024/04/03 03:15:58;;;;;;;24.63;8.05;;;;;;;13.76;56.15;96631.50;5114139;28;20505;-66
2024/04/03 03:18:28;;;;;;;32.00;8.68;;;;;;;13.76;56.27;96633.41;5096027;28;20397;-64
2024/04/03 03:20:57;;;;;;;29.58;7.70;;;;;;;13.74;56.29;96633.72;5114217;28;20454;-63
2024/04/03 03:23:23;;;;;;;32.80;8.35;;;;;;;13.72;56.56;96640.47;5113698;28;20531;-63
2024/04/03 03:25:53;;;;;;;25.52;7.80;;;;;;;13.76;56.31;96641.38;5113086;28;20071;-65
2024/04/03 03:28:20;;;;;;;28.10;8.23;;;;;;;13.78;57.10;96641.84;5095253;28;20514;-64
2024/04/03 03:30:51;;;;;;;28.88;7.80;;;;;;;13.81;56.53;96638.53;5095451;28;20086;-63
2024/04/03 03:33:18;;;;;;;25.63;7.85;;;;;;;13.83;56.47;96637.09;5113296;28;20216;-65
2024/04/03 03:35:55;;;;;;;28.75;8.10;;;;;;;13.84;55.97;96633.31;5095327;28;20040;-64
2024/04/03 03:38:22;;;;;;;32.13;8.18;;;;;;;13.84;56.72;96632.56;5078802;28;20113;-64
2024/04/03 03:40:47;;;;;;;27.75;8.32;;;;;;;13.73;56.52;96612.75;5094215;28;20047;-64
2024/04/03 03:43:13;;;;;;;30.92;8.82;;;;;;;13.97;55.97;96647.50;5114029;28;20039;-64
2024/04/03 03:45:44;;;;;;;24.27;7.90;;;;;;;14.02;56.00;96633.19;5113515;28;20043;-67
2024/04/03 03:48:10;;;;;;;27.83;8.57;;;;;;;14.06;56.05;96636.78;5059803;28;20095;-66
2024/04/03 03:53:20;;;;;;;30.52;7.97;;;;;;;14.17;55.23;96632.56;5071951;28;20066;-64
2024/04/03 03:55:45;;;;;;;25.67;7.78;;;;;;;14.18;55.80;96625.38;5072407;28;20394;-64
2024/04/03 03:58:11;;;;;;;32.90;9.05;;;;;;;14.22;55.12;96629.72;5072433;28;20506;-65
2024/04/03 04:00:37;;;;;;;34.17;8.50;;;;;;;14.24;55.27;96632.84;5054379;28;20098;-64
2024/04/03 04:03:06;;;;;;;26.48;8.55;;;;;;;14.23;55.39;96644.59;5071257;28;20071;-65
2024/04/03 04:05:35;;;;;;;28.38;7.93;;;;;;;14.24;55.14;96642.72;5070973;28;20141;-65
2024/04/03 04:08:02;;;;;;;22.85;7.60;;;;;;;14.31;54.93;96651.72;5072389;28;20044;-63
2024/04/03 04:10:28;;;;;;;23.67;7.50;;;;;;;14.32;54.92;96636.50;5071993;28;20052;-64
2024/04/03 04:12:54;;;;;;;26.98;7.75;;;;;;;14.40;54.69;96637.53;5072298;28;20040;-65
2024/04/03 04:15:22;;;;;;;28.08;8.43;;;;;;;14.39;55.05;96641.31;5072277;28;20041;-65
2024/04/03 04:17:50;;;;;;;32.75;8.70;;;;;;;14.37;54.34;96652.31;5071102;28;20048;-65
2024/04/03 04:20:16;;;;;;;35.08;8.43;;;;;;;14.35;54.62;96656.41;5054313;28;20452;-64
2024/04/03 04:22:47;;;;;;;24.23;7.13;;;;;;;14.35;54.50;96659.06;5072305;28;20451;-66
2024/04/03 04:25:13;;;;;;;25.85;7.90;;;;;;;14.37;54.92;96662.19;5070665;28;20041;-65
2024/04/03 04:27:39;;;;;;;26.77;8.25;;;;;;;14.38;54.88;96666.41;5054067;28;20098;-64
2024/04/03 04:30:06;;;;;;;33.28;7.75;;;;;;;14.36;54.47;96666.75;5071803;28;20127;-64
2024/04/03 04:32:32;;;;;;;31.02;8.50;;;;;;;14.32;54.62;96668.47;5071749;28;20054;-67
2024/04/03 04:34:58;;;;;;;31.30;7.65;;;;;;;14.34;55.07;96676.94;5071995;28;20102;-65
2024/04/03 04:37:25;;;;;;;37.58;7.75;;;;;;;14.23;55.04;96657.13;5071907;28;20532;-66
2024/04/03 04:39:50;;;;;;;20.30;7.50;;;;;;;14.27;54.95;96672.16;5071745;28;20097;-64
2024/04/03 04:42:16;;;;;;;31.73;7.78;;;;;;;14.23;55.40;96668.56;5071854;28;20041;-63
2024/04/03 04:44:42;;;;;;;33.78;7.90;;;;;;;14.18;55.12;96660.78;5071434;28;20127;-65
2024/04/03 04:47:08;;;;;;;30.75;7.68;;;;;;;14.24;55.36;96659.47;5084446;28;20064;-65
2024/04/03 04:49:33;;;;;;;25.52;7.45;;;;;;;14.40;54.64;96661.53;5112142;28;20169;-65
2024/04/03 04:51:59;;;;;;;37.88;7.97;;;;;;;14.52;54.64;96658.94;5112468;28;20639;-67
2024/04/03 04:54:25;;;;;;;26.90;6.97;;;;;;;14.53;55.12;96657.84;5112346;28;20511;-64
2024/04/03 04:56:50;;;;;;;27.17;7.07;;;;;;;14.50;54.66;96647.78;5112122;28;20043;-65
2024/04/03 04:59:16;;;;;;;27.52;7.30;;;;;;;14.48;54.86;96648.13;5112130;28;20044;-64
2024/04/03 05:01:42;;;;;;;35.30;7.53;;;;;;;14.48;55.07;96648.13;5112270;28;20160;-64
2024/04/03 05:04:10;;;;;;;27.55;7.53;;;;;;;14.56;55.11;96645.72;5093929;28;20063;-65
2024/04/03 05:06:36;;;;;;;42.58;7.90;;;;;;;14.60;54.29;96650.06;5093670;28;20505;-67
2024/04/03 05:09:03;;;;;;;25.38;7.40;;;;;;;14.58;54.72;96643.50;5093349;28;20051;-67
2024/04/03 05:11:29;;;;;;;26.48;7.15;;;;;;;14.63;54.61;96653.97;5094056;28;20039;-65
2024/04/03 05:13:55;;;;;;;27.45;7.50;;;;;;;14.62;54.96;96647.84;5110155;28;20520;-64
2024/04/03 05:16:21;;;;;;;24.73;6.93;;;;;;;14.64;54.78;96658.94;5111980;28;20043;-65
2024/04/03 05:18:49;;;;;;;22.40;7.25;;;;;;;14.69;54.87;96664.06;5093644;28;20059;-64
2024/04/03 05:21:17;;;;;;;34.70;7.65;;;;;;;14.69;54.71;96657.97;5112011;28;20036;-65
2024/04/03 05:23:43;;;;;;;27.67;7.47;;;;;;;14.70;54.58;96675.50;5076691;28;20035;-65
2024/04/03 05:26:10;;;;;;;26.13;7.15;;;;;;;14.73;54.79;96669.53;5093617;28;20035;-65
2024/04/03 05:28:36;;;;;;;29.40;7.30;;;;;;;14.81;54.61;96667.88;5093125;28;20100;-65
2024/04/03 05:31:06;;;;;;;31.13;6.88;;;;;;;14.86;54.23;96670.34;5111732;28;20421;-63
2024/04/03 05:33:35;;;;;;;24.15;6.55;;;;;;;14.83;54.22;96674.44;5111584;28;20040;-64
2024/04/03 05:36:03;;;;;;;27.92;7.10;;;;;;;14.86;54.40;96673.78;5111772;28;20032;-64
2024/04/03 05:38:29;;;;;;;21.73;6.40;;;;;;;14.86;54.16;96687.13;5111443;28;20519;-63
2024/04/03 05:40:55;;;;;;;25.65;7.13;;;;;;;14.88;54.00;96674.25;5111526;28;20039;-64
2024/04/03 05:43:22;;;;;;;21.60;6.47;;;;;;;14.97;54.29;96685.59;5059590;28;20535;-65
2024/04/03 05:45:49;;;;;;;23.00;7.35;;;;;;;14.97;54.02;96682.13;5111388;28;20058;-65
2024/04/03 05:48:15;;;;;;;27.27;6.43;;;;;;;15.01;53.94;96666.25;5111269;28;20055;-64
2024/04/03 05:50:42;;;;;;;21.17;6.15;;;;;;;15.00;53.91;96676.16;5114850;28;20066;-64
2024/04/03 05:53:08;;;;;;;25.10;6.45;;;;;;;15.04;54.67;96657.59;5097372;28;20075;-65
2024/04/03 05:55:34;;;;;;;22.13;5.93;;;;;;;15.06;54.45;96650.81;5097202;28;20074;-63
2024/04/03 05:58:00;;;;;;;24.42;5.93;;;;;;;15.12;54.20;96660.13;5097076;28;20044;-66
2024/04/03 06:00:26;;;;;;;25.13;7.38;;;;;;;15.15;54.01;96659.47;5113332;28;20039;-64
2024/04/03 06:02:53;;;;;;;22.38;6.88;;;;;;;15.20;53.93;96661.13;5096131;28;20048;-61
2024/04/03 06:05:20;;;;;;;22.45;6.50;;;;;;;15.21;53.86;96654.69;5060007;28;20039;-64
2024/04/03 06:07:48;;;;;;;25.75;6.10;;;;;;;15.29;53.87;96647.66;5096152;28;20035;-67
2024/04/03 06:10:16;;;;;;;27.05;5.68;;;;;;;15.29;53.79;96651.13;5075120;28;20413;-65
2024/04/03 06:12:42;;;;;;;25.90;7.00;;;;;;;15.34;53.94;96655.47;5114358;28;20138;-65
2024/04/03 06:15:08;;;;;;;17.33;6.07;;;;;;;15.37;54.00;96660.91;5096310;28;20055;-64
2024/04/03 06:17:34;;;;;;;22.73;6.35;;;;;;;15.38;53.55;96659.81;5096374;28;20039;-65
2024/04/03 06:20:00;;;;;;;31.20;6.43;;;;;;;15.38;53.98;96659.81;5096620;28;20178;-65
2024/04/03 06:22:26;;;;;;;20.17;5.88;;;;;;;15.41;53.35;96661.00;5114720;28;20043;-64
2024/04/03 06:24:53;;;;;;;22.30;5.60;;;;;;;15.45;53.04;96661.91;5114903;28;20465;-64
2024/04/03 06:27:18;;;;;;;20.15;5.75;;;;;;;15.49;52.43;96659.34;5075673;28;20079;-67
2024/04/03 06:29:44;;;;;;;23.02;5.30;;;;;;;15.52;51.05;96666.69;5093128;28;20416;-64
2024/04/03 06:32:11;;;;;;;19.23;5.47;;;;;;;15.53;51.07;96655.69;5109641;28;20043;-64
2024/04/03 06:34:36;;;;;;;16.33;4.57;;;;;;;15.56;50.22;96646.19;5114453;28;20032;-63
2024/04/03 06:37:02;;;;;;;12.88;4.60;;;;;;;15.57;50.30;96645.88;5079167;28;20089;-64
2024/04/03 06:39:28;;;;;;;17.40;4.65;;;;;;;15.55;49.41;96642.75;5114569;28;20146;-65
2024/04/03 06:41:54;;;;;;;15.55;4.30;;;;;;;15.60;49.02;96637.19;5114545;28;20126;-63
2024/04/03 06:44:20;;;;;;;10.82;4.30;;;;;;;15.60;48.27;96623.84;5095559;28;20074;-63
2024/04/03 06:46:46;;;;;;;15.50;4.13;;;;;;;15.69;48.51;96641.66;5113773;28;20051;-61
2024/04/03 06:49:12;;;;;;;15.82;4.05;;;;;;;15.74;48.96;96638.75;5095610;28;20045;-64
2024/04/03 06:51:38;;;;;;;21.20;4.35;;;;;;;15.72;48.05;96636.41;5113739;28;20127;-63
2024/04/03 06:54:07;;;;;;;18.55;4.55;;;;;;;15.78;47.43;96640.41;5061838;28;20063;-65
2024/04/03 06:56:34;;;;;;;15.20;4.45;;;;;;;15.84;47.54;96641.72;5111695;28;20119;-63
2024/04/03 06:59:00;;;;;;;14.57;4.20;;;;;;;15.93;47.48;96640.81;5113789;28;20036;-64
2024/04/03 07:01:26;;;;;;;13.35;4.05;;;;;;;15.98;46.72;96629.88;5111609;28;20126;-63
2024/04/03 07:03:52;;;;;;;14.57;4.00;;;;;;;16.04;46.85;96626.63;5114105;28;20040;-64
2024/04/03 07:06:19;;;;;;;20.23;4.82;;;;;;;16.06;46.42;96628.94;5113857;28;20074;-65
2024/04/03 07:08:45;;;;;;;15.48;4.10;;;;;;;16.15;46.48;96637.63;5113289;28;20054;-64
2024/04/03 07:11:11;;;;;;;17.33;3.65;;;;;;;16.19;46.18;96621.69;5113001;28;20044;-63
2024/04/03 07:13:37;;;;;;;18.13;4.60;;;;;;;16.23;45.49;96622.53;5095342;28;20047;-63
2024/04/03 07:16:04;;;;;;;18.17;3.95;;;;;;;16.24;45.81;96614.19;5092867;27;20036;-62
2024/04/03 07:18:30;;;;;;;13.68;3.85;;;;;;;16.31;45.84;96608.25;5132079;27;20385;-63
2024/04/03 07:20:57;;;;;;;16.02;4.35;;;;;;;16.28;45.67;96612.38;5127348;27;20046;-63
2024/04/03 07:23:27;;;;;;;12.35;3.47;;;;;;;16.32;45.34;96610.59;5113440;28;20036;-64
2024/04/03 07:25:57;;;;;;;14.57;3.50;;;;;;;16.43;44.95;96620.78;5093507;28;20035;-63
2024/04/03 07:28:24;;;;;;;10.68;3.13;;;;;;;16.47;44.87;96595.69;5095164;28;20039;-63
2024/04/03 07:30:57;;;;;;;17.63;3.55;;;;;;;16.48;43.92;96607.94;5074069;28;20047;-64
2024/04/03 07:33:25;;;;;;;20.73;3.63;;;;;;;16.54;44.26;96585.16;5110377;28;20035;-63
2024/04/03 07:35:51;;;;;;;16.90;3.50;;;;;;;16.66;43.69;96608.38;5112489;28;20397;-63
2024/04/03 07:38:19;;;;;;;16.80;3.97;;;;;;;16.89;43.12;96611.25;5112840;28;20035;-61
2024/04/03 07:40:47;;;;;;;21.00;3.10;;;;;;;17.18;42.33;96620.72;5077440;28;20047;-63
2024/04/03 07:43:16;;;;;;;13.57;3.30;;;;;;;17.21;41.78;96601.31;5077783;28;20512;-63
2024/04/03 07:45:42;;;;;;;11.50;3.33;;;;;;;17.23;41.52;96599.03;5112753;27;20558;-64
2024/04/03 07:48:08;;;;;;;14.00;3.58;;;;;;;17.38;41.35;96608.19;5107788;28;20059;-63
2024/04/03 07:50:33;;;;;;;15.05;3.05;;;;;;;17.51;41.12;96598.13;5089707;28;20480;-64
2024/04/03 07:52:59;;;;;;;17.10;4.25;;;;;;;17.72;40.50;96603.16;5111918;28;20032;-66
2024/04/03 07:55:24;;;;;;;12.90;3.25;;;;;;;17.76;40.36;96579.88;5112154;28;20047;-63
2024/04/03 07:57:50;;;;;;;19.23;3.28;;;;;;;17.66;39.79;96591.94;5112474;28;20036;-65
2024/04/03 08:00:16;;;;;;;11.93;3.05;;;;;;;17.74;39.88;96594.78;5112199;28;20040;-65
2024/04/03 08:02:43;;;;;;;26.75;3.58;;;;;;;17.57;39.67;96569.94;5112446;28;20051;-67
2024/04/03 08:05:12;;;;;;;22.42;3.10;;;;;;;17.53;39.52;96549.53;5112054;28;20497;-62
2024/04/03 08:07:40;;;;;;;16.85;2.40;;;;;;;17.58;39.20;96579.50;5094238;28;20035;-64
2024/04/03 08:10:08;;;;;;;14.18;2.75;;;;;;;17.67;39.26;96572.03;5094096;28;20458;-64
2024/04/03 08:12:34;;;;;;;17.85;2.45;;;;;;;17.57;39.36;96574.53;5111718;28;20068;-64
2024/04/03 08:15:00;;;;;;;15.23;3.30;;;;;;;17.54;39.46;96567.19;5111949;28;20392;-63
2024/04/03 08:17:27;;;;;;;18.67;3.58;;;;;;;17.51;39.77;96567.88;5077105;28;20031;-64
2024/04/03 08:19:56;;;;;;;16.23;2.83;;;;;;;17.68;39.68;96556.75;5112316;28;20400;-65
2024/04/03 08:22:23;;;;;;;13.60;3.13;;;;;;;17.76;39.38;96561.13;5112289;28;20040;-64
2024/04/03 08:24:50;;;;;;;12.30;2.78;;;;;;;17.55;39.63;96523.97;5112348;28;20038;-66
2024/04/03 08:27:16;;;;;;;15.30;2.83;;;;;;;17.72;39.56;96549.56;5112633;28;20054;-66
2024/04/03 08:29:43;;;;;;;8.98;2.10;;;;;;;17.61;40.15;96552.03;5111626;28;20044;-66
2024/04/03 08:32:10;;;;;;;16.33;2.75;;;;;;;17.48;39.91;96538.00;5094316;28;20434;-66
2024/04/03 08:34:37;;;;;;;11.48;2.53;;;;;;;17.47;40.22;96543.69;5111955;28;20032;-65
2024/04/03 08:37:04;;;;;;;8.85;2.40;;;;;;;17.49;40.40;96554.84;5093941;28;20151;-65
2024/04/03 08:39:30;;;;;;;14.70;2.58;;;;;;;17.49;40.53;96549.47;5111934;28;20031;-66
2024/04/03 08:41:58;;;;;;;7.20;2.33;;;;;;;17.56;40.52;96543.50;5112515;28;20035;-67
2024/04/03 08:44:26;;;;;;;10.00;2.60;;;;;;;17.65;40.16;96539.50;5093341;28;20168;-67
2024/04/03 08:46:54;;;;;;;8.18;2.17;;;;;;;17.64;40.10;96534.47;5093595;28;20079;-67
2024/04/03 08:49:21;;;;;;;12.55;2.60;;;;;;;17.64;40.33;96543.28;5110821;28;20090;-66
2024/04/03 08:52:10;;;;;;;14.07;2.70;;;;;;;17.57;40.13;96535.13;5093536;28;20036;-65
2024/04/03 08:54:43;;;;;;;15.27;3.05;;;;;;;17.56;40.39;96533.56;5093089;28;20054;-65
2024/04/03 08:57:09;;;;;;;17.70;2.50;;;;;;;17.74;39.89;96541.19;5110463;28;20473;-66
2024/04/03 08:59:38;;;;;;;19.50;2.90;;;;;;;17.81;39.53;96523.34;5092598;28;20133;-68
2024/04/03 09:02:05;;;;;;;15.55;3.47;;;;;;;17.86;39.62;96509.69;5093028;28;20051;-63
2024/04/03 09:04:32;;;;;;;14.35;2.33;;;;;;;17.72;40.02;96506.69;5086274;28;20036;-64
2024/04/03 09:06:58;;;;;;;31.10;3.75;;;;;;;17.72;40.15;96496.00;5111147;28;20058;-65
2024/04/03 09:09:30;;;;;;;23.38;3.63;;;;;;;17.83;39.67;96502.34;5093197;28;20135;-64
2024/04/03 09:12:06;;;;;;;18.95;2.95;;;;;;;17.83;39.48;96498.91;5112113;28;20488;-64
2024/04/03 09:14:34;;;;;;;21.55;2.85;;;;;;;17.79;39.19;96498.81;5092930;28;20134;-64
2024/04/03 09:17:04;;;;;;;24.60;3.42;;;;;;;17.81;39.24;96493.13;5111952;28;20434;-65
2024/04/03 09:19:31;;;;;;;23.33;2.80;;;;;;;17.86;39.06;96471.41;5111116;28;20533;-63
2024/04/03 09:22:01;;;;;;;20.48;2.92;;;;;;;17.93;38.44;96477.63;5111543;28;20062;-62
2024/04/03 09:24:31;;;;;;;;;;;;;;;17.90;37.95;96499.78;5110763;28;20051;-62
2024/04/03 09:26:58;;;;;;;11.73;2.77;;;;;;;17.85;38.67;96481.34;5111293;28;19958;-63
2024/04/03 09:29:25;;;;;;;21.48;2.85;;;;;;;17.75;38.50;96478.44;5110901;28;20043;-63
2024/04/03 09:31:51;;;;;;;15.10;3.15;;;;;;;17.68;38.29;96471.81;5093163;28;20089;-62
2024/04/03 09:34:18;;;;;;;21.00;2.58;;;;;;;17.53;38.68;96483.41;5111324;28;20518;-64
2024/04/03 09:36:44;;;;;;;20.30;3.20;;;;;;;17.57;39.08;96486.13;5093137;28;20035;-62
2024/04/03 09:39:10;;;;;;;15.00;3.58;;;;;;;17.50;39.25;96481.44;5093007;28;20527;-62
2024/04/03 09:41:38;;;;;;;16.17;3.08;;;;;;;17.43;39.67;96479.34;5092978;28;20050;-66
2024/04/03 09:44:07;;;;;;;17.20;2.70;;;;;;;17.35;39.88;96493.72;5098110;28;20074;-65
2024/04/03 09:47:05;;;;;;;7.93;2.80;;;;;;;17.24;40.36;96484.72;5099208;28;20043;-65
2024/04/03 09:49:44;;;;;;;16.42;3.47;;;;;;;17.29;40.52;96484.44;5094720;28;20130;-64
2024/04/03 09:52:13;;;;;;;15.68;2.92;;;;;;;17.37;40.31;96478.09;5131177;28;20440;-65
2024/04/03 09:54:48;;;;;;;13.07;2.80;;;;;;;17.25;40.56;96479.00;5057888;28;20185;-63
2024/04/03 09:57:14;;;;;;;7.57;2.45;;;;;;;17.19;40.59;96485.00;5126857;28;20089;-63
2024/04/03 09:59:41;;;;;;;10.32;3.03;;;;;;;17.15;41.02;96484.94;5095309;28;20040;-65
2024/04/03 10:02:10;;;;;;;18.70;3.20;;;;;;;17.15;40.78;96486.84;5092662;28;20059;-66
2024/04/03 10:04:37;;;;;;;18.67;3.60;;;;;;;17.14;40.01;96499.41;5110961;28;20039;-64
2024/04/03 10:07:03;;;;;;;19.42;2.95;;;;;;;17.01;40.27;96500.69;5111410;28;20069;-66
2024/04/03 10:09:30;;;;;;;15.00;2.83;;;;;;;17.07;40.59;96499.28;5075335;28;20075;-67
2024/04/03 10:12:00;;;;;;;10.10;3.03;;;;;;;17.01;40.17;96488.06;5110585;28;20063;-63
2024/04/03 10:14:27;;;;;;;;;;;;;;;17.07;39.51;96501.19;5111359;28;20044;-63
2024/04/03 10:16:54;;;;;;;18.17;3.42;;;;;;;17.12;39.38;96500.88;5111225;28;19927;-61
2024/04/03 10:19:24;;;;;;;15.35;2.40;;;;;;;17.13;38.85;96513.94;5092838;28;20050;-63
2024/04/03 10:21:50;;;;;;;11.73;2.25;;;;;;;17.02;38.66;96505.66;5111180;28;20031;-65
2024/04/03 10:24:19;;;;;;;13.48;2.50;;;;;;;17.09;38.83;96514.97;5110690;28;20039;-64
2024/04/03 10:26:46;;;;;;;16.27;3.03;;;;;;;17.07;38.63;96515.34;5111171;28;20377;-63
2024/04/03 10:29:13;;;;;;;12.63;2.15;;;;;;;17.10;38.50;96524.56;5092383;28;20115;-65
2024/04/03 10:31:39;;;;;;;8.10;2.35;;;;;;;16.99;38.54;96527.78;5076032;28;20496;-64
2024/04/03 10:34:05;;;;;;;15.73;2.15;;;;;;;16.97;38.79;96523.88;5092328;28;20036;-62
2024/04/03 10:36:30;;;;;;;16.02;2.53;;;;;;;17.00;38.70;96528.53;5095441;28;20446;-64
2024/04/03 10:38:56;;;;;;;9.18;1.95;;;;;;;16.96;38.15;96539.19;5114079;28;20054;-63
2024/04/03 10:41:22;;;;;;;10.82;2.20;;;;;;;17.00;38.32;96540.06;5114455;28;20046;-63
2024/04/03 10:43:49;;;;;;;9.18;2.00;;;;;;;16.98;38.49;96539.59;5113727;28;20432;-61
2024/04/03 10:46:26;;;;;;;12.35;2.17;;;;;;;16.82;38.43;96557.56;5114367;28;20558;-63
2024/04/03 10:48:58;;;;;;;6.72;2.08;;;;;;;16.80;38.98;96559.84;5113924;28;20044;-63
2024/04/03 10:51:25;;;;;;;11.00;1.92;;;;;;;16.70;38.71;96574.47;5112819;28;20040;-65
2024/04/03 10:53:51;;;;;;;7.97;1.98;;;;;;;16.64;38.09;96556.34;5078429;28;20043;-64
2024/04/03 10:56:18;;;;;;;10.38;2.35;;;;;;;16.55;38.85;96559.97;5075528;28;20058;-64
2024/04/03 10:58:44;;;;;;;13.60;2.30;;;;;;;16.51;38.78;96566.38;5106072;28;20051;-64
2024/04/03 11:01:13;;;;;;;12.63;2.03;;;;;;;16.53;38.59;96586.28;5114086;28;20039;-63
2024/04/03 11:03:43;;;;;;;10.05;1.83;;;;;;;16.59;37.73;96586.81;5095444;28;20046;-62
2024/04/03 11:06:10;;;;;;;12.60;1.93;;;;;;;16.49;37.04;96588.09;5095614;28;20042;-64
2024/04/03 11:08:36;;;;;;;8.20;1.50;;;;;;;16.39;37.40;96580.59;5129583;27;20509;-64
2024/04/03 11:11:10;;;;;;;12.18;1.70;;;;;;;16.15;38.21;96591.38;5095987;28;20039;-63
2024/04/03 11:13:36;;;;;;;7.32;1.83;;;;;;;15.98;38.55;96597.84;5114003;28;20047;-63
2024/04/03 11:16:10;;;;;;;10.20;1.80;;;;;;;15.92;39.53;96575.16;5113759;28;20062;-64
2024/04/03 11:18:36;;;;;;;6.90;1.45;;;;;;;16.02;39.66;96588.78;5096115;28;20050;-63
2024/04/03 11:21:05;;;;;;;9.73;1.88;;;;;;;16.09;39.90;96602.34;5095584;28;20134;-63
2024/04/03 11:23:33;;;;;;;5.43;1.42;;;;;;;15.88;40.03;96585.72;5094702;28;20047;-63
2024/04/03 11:26:00;;;;;;;5.10;1.70;;;;;;;15.67;40.33;96591.22;5113254;28;20039;-65
2024/04/03 11:28:28;;;;;;;5.43;1.30;;;;;;;15.66;39.94;96603.03;5112875;28;20044;-64